Time;durP1;ratioP1;P1;durP2;ratioP2;P2;SDS_P1;SDS_P2;PMS_P1;PMS_P2;Temp;Humidity;BMP_temperature;BMP_pressure;BME280_temperature;BME280_humidity;BME280_pressure;Samples;Min_cycle;Max_cycle;Signal;HPM_P1;HPM_P2
2023/03/03 00:01:35;;;;;;;61.67;37.70;;;;;;;;;;5033657;28;20510;-67
2023/03/03 00:04:01;;;;;;;61.60;39.92;;;;;;;;;;5024566;28;20039;-67
2023/03/03 00:06:28;;;;;;;66.18;40.55;;;;;;;;;;5024386;28;20036;-69
2023/03/03 00:08:54;;;;;;;62.33;40.35;;;;;;;;;;5033643;28;20017;-67
2023/03/03 00:11:19;;;;;;;63.95;39.50;;;;;;;;;;5030652;28;20580;-68
2023/03/03 00:13:44;;;;;;;65.75;41.97;;;;;;;;;;5033493;28;20036;-67
2023/03/03 00:16:14;;;;;;;67.43;42.42;;;;;;;;;;5019912;28;20071;-68
2023/03/03 00:18:42;;;;;;;67.78;42.13;;;;;;;;;;5015172;28;20044;-68
2023/03/03 00:21:21;;;;;;;66.25;42.88;;;;;;;;;;5014195;28;20022;-67
2023/03/03 00:23:46;;;;;;;63.65;40.78;;;;;;;;;;5028639;28;20029;-68
2023/03/03 00:26:15;;;;;;;65.03;43.53;;;;;;;;;;5032945;28;20884;-69
2023/03/03 00:28:44;;;;;;;70.05;44.47;;;;;;;;;;5028427;28;20033;-69
2023/03/03 00:31:17;;;;;;;68.00;42.35;;;;;;;;;;5034021;28;20487;-68
2023/03/03 00:33:53;;;;;;;74.30;43.78;;;;;;;;;;5019802;28;20029;-68
2023/03/03 00:36:37;;;;;;;73.00;44.15;;;;;;;;;;5030806;28;20543;-68
2023/03/03 00:39:17;;;;;;;76.13;44.20;;;;;;;;;;5038708;28;20025;-68
2023/03/03 00:41:43;;;;;;;69.90;42.85;;;;;;;;;;5034067;28;20032;-69
2023/03/03 00:44:25;;;;;;;66.72;42.67;;;;;;;;;;5031064;28;20036;-69
2023/03/03 00:46:52;;;;;;;64.75;39.88;;;;;;;;;;5031310;28;20110;-68
2023/03/03 00:49:23;;;;;;;78.18;44.00;;;;;;;;;;5029283;28;20036;-68
2023/03/03 00:51:48;;;;;;;73.90;45.25;;;;;;;;;;5036890;28;20053;-69
2023/03/03 00:54:14;;;;;;;80.00;47.40;;;;;;;;;;5031264;28;20108;-68
2023/03/03 00:56:39;;;;;;;81.30;47.15;;;;;;;;;;5024558;28;20094;-68
2023/03/03 00:59:06;;;;;;;80.35;48.45;;;;;;;;;;5029769;28;20506;-69
2023/03/03 01:01:31;;;;;;;78.72;48.08;;;;;;;;;;5034181;28;20052;-69
2023/03/03 01:03:56;;;;;;;86.50;51.00;;;;;;;;;;5028950;28;20864;-68
2023/03/03 01:06:22;;;;;;;91.03;52.13;;;;;;;;;;5025084;28;20108;-68
2023/03/03 01:08:47;;;;;;;88.60;54.38;;;;;;;;;;5031746;28;20074;-68
2023/03/03 01:11:16;;;;;;;96.82;54.47;;;;;;;;;;5031791;28;20180;-68
2023/03/03 01:13:43;;;;;;;94.30;56.22;;;;;;;;;;5033435;28;20052;-68
2023/03/03 01:16:08;;;;;;;97.70;54.13;;;;;;;;;;5033704;28;20136;-68
2023/03/03 01:18:34;;;;;;;97.47;54.78;;;;;;;;;;5017852;28;20033;-69
2023/03/03 01:21:00;;;;;;;104.65;60.63;;;;;;;;;;5015675;28;20349;-68
2023/03/03 01:23:26;;;;;;;100.25;56.70;;;;;;;;;;5025025;28;20033;-68
2023/03/03 01:25:51;;;;;;;100.22;57.10;;;;;;;;;;5015722;28;20038;-68
2023/03/03 01:28:16;;;;;;;97.25;57.38;;;;;;;;;;5020656;28;20523;-68
2023/03/03 01:30:42;;;;;;;102.78;56.50;;;;;;;;;;5016022;28;20040;-68
2023/03/03 01:33:07;;;;;;;99.70;55.33;;;;;;;;;;5016065;28;20025;-68
2023/03/03 01:35:35;;;;;;;95.43;56.85;;;;;;;;;;5020789;28;20034;-67
2023/03/03 01:38:00;;;;;;;101.65;57.88;;;;;;;;;;5022415;28;20036;-68
2023/03/03 01:40:26;;;;;;;93.95;54.40;;;;;;;;;;5014659;28;20037;-68
2023/03/03 01:42:52;;;;;;;92.55;54.88;;;;;;;;;;5023988;28;20063;-68
2023/03/03 01:45:26;;;;;;;92.43;52.38;;;;;;;;;;5012360;28;20488;-68
2023/03/03 01:48:07;;;;;;;108.15;54.92;;;;;;;;;;5022149;28;20036;-68
2023/03/03 01:50:44;;;;;;;98.53;52.45;;;;;;;;;;5018035;28;20086;-68
2023/03/03 01:53:15;;;;;;;98.38;51.92;;;;;;;;;;5031397;28;20069;-68
2023/03/03 01:55:41;;;;;;;97.65;56.67;;;;;;;;;;5030625;28;20140;-68
2023/03/03 01:58:09;;;;;;;100.57;55.67;;;;;;;;;;5029969;28;20432;-68
2023/03/03 02:00:36;;;;;;;96.20;56.60;;;;;;;;;;5034104;28;20585;-68
2023/03/03 02:03:02;;;;;;;95.55;55.70;;;;;;;;;;5032684;28;20029;-68
2023/03/03 02:05:28;;;;;;;107.50;56.50;;;;;;;;;;5030238;28;20036;-68
2023/03/03 02:07:53;;;;;;;100.47;57.10;;;;;;;;;;5028410;28;20025;-68
2023/03/03 02:10:20;;;;;;;100.95;54.47;;;;;;;;;;5030435;28;20041;-68
2023/03/03 02:12:48;;;;;;;108.93;61.33;;;;;;;;;;5027672;28;20029;-68
2023/03/03 02:15:18;;;;;;;108.60;58.90;;;;;;;;;;5032883;28;20044;-68
2023/03/03 02:17:44;;;;;;;105.63;58.28;;;;;;;;;;5032919;28;20033;-68
2023/03/03 02:20:14;;;;;;;106.22;57.40;;;;;;;;;;5020523;28;20500;-67
2023/03/03 02:22:43;;;;;;;116.00;59.13;;;;;;;;;;5014189;28;20963;-68
2023/03/03 02:25:10;;;;;;;100.45;57.95;;;;;;;;;;5013668;28;20116;-67
2023/03/03 02:27:36;;;;;;;120.63;63.22;;;;;;;;;;5024799;28;20230;-68
2023/03/03 02:30:12;;;;;;;99.93;57.00;;;;;;;;;;5024025;28;20776;-68
2023/03/03 02:32:38;;;;;;;104.55;60.13;;;;;;;;;;5025519;28;20033;-68
2023/03/03 02:35:23;;;;;;;117.75;60.35;;;;;;;;;;5029719;28;20075;-68
2023/03/03 02:37:48;;;;;;;109.28;58.55;;;;;;;;;;5016047;28;20045;-68
2023/03/03 02:40:14;;;;;;;102.07;56.72;;;;;;;;;;5016658;28;20036;-68
2023/03/03 02:42:40;;;;;;;123.53;63.10;;;;;;;;;;5024993;28;20083;-68
2023/03/03 02:45:05;;;;;;;113.07;63.28;;;;;;;;;;5033253;28;20590;-68
2023/03/03 02:47:30;;;;;;;119.78;61.95;;;;;;;;;;5018096;28;20025;-68
2023/03/03 02:49:56;;;;;;;106.82;61.65;;;;;;;;;;5024040;28;20476;-68
2023/03/03 02:52:21;;;;;;;114.60;60.72;;;;;;;;;;5020170;28;20129;-68
2023/03/03 02:54:46;;;;;;;100.18;58.75;;;;;;;;;;5016886;28;20079;-68
2023/03/03 02:57:12;;;;;;;117.63;60.90;;;;;;;;;;5027378;28;20789;-69
2023/03/03 02:59:37;;;;;;;117.78;62.63;;;;;;;;;;5018860;28;20501;-68
2023/03/03 03:02:03;;;;;;;106.88;58.40;;;;;;;;;;5018811;28;20072;-68
2023/03/03 03:04:28;;;;;;;108.15;55.80;;;;;;;;;;5015987;28;20041;-68
2023/03/03 03:06:54;;;;;;;99.20;56.53;;;;;;;;;;5017672;28;20811;-68
2023/03/03 03:09:20;;;;;;;96.53;53.42;;;;;;;;;;5025691;28;20020;-68
2023/03/03 03:11:45;;;;;;;94.15;54.15;;;;;;;;;;5024648;28;20127;-68
2023/03/03 03:14:11;;;;;;;94.60;50.15;;;;;;;;;;5017990;28;20111;-68
2023/03/03 03:16:37;;;;;;;89.97;49.33;;;;;;;;;;5024486;28;20041;-68
2023/03/03 03:19:03;;;;;;;84.15;48.95;;;;;;;;;;5019695;28;20061;-68
2023/03/03 03:21:28;;;;;;;92.82;51.92;;;;;;;;;;5013542;28;20436;-68
2023/03/03 03:23:54;;;;;;;89.50;48.60;;;;;;;;;;5015326;28;20025;-68
2023/03/03 03:26:20;;;;;;;81.65;46.95;;;;;;;;;;5011712;28;20036;-68
2023/03/03 03:28:46;;;;;;;76.63;44.72;;;;;;;;;;5022478;28;20095;-68
2023/03/03 03:31:11;;;;;;;95.22;48.40;;;;;;;;;;5029224;28;20448;-68
2023/03/03 03:33:37;;;;;;;81.25;46.05;;;;;;;;;;5028673;28;20127;-68
2023/03/03 03:36:03;;;;;;;79.75;46.55;;;;;;;;;;5022544;28;20025;-68
2023/03/03 03:38:29;;;;;;;77.30;45.00;;;;;;;;;;5017611;28;20025;-68
2023/03/03 03:40:54;;;;;;;81.30;44.35;;;;;;;;;;5011078;28;20388;-68
2023/03/03 03:43:19;;;;;;;66.47;41.97;;;;;;;;;;5013890;28;20033;-70
2023/03/03 03:45:45;;;;;;;79.78;46.47;;;;;;;;;;5027719;28;20112;-68
2023/03/03 03:48:10;;;;;;;76.63;44.30;;;;;;;;;;5032656;28;20033;-68
2023/03/03 03:50:36;;;;;;;73.63;44.13;;;;;;;;;;5019477;28;20029;-68
2023/03/03 03:53:01;;;;;;;77.68;46.05;;;;;;;;;;5025905;28;20035;-68
2023/03/03 03:55:27;;;;;;;78.28;44.30;;;;;;;;;;5032876;28;20854;-68
2023/03/03 03:57:52;;;;;;;80.20;43.95;;;;;;;;;;5021651;28;20045;-68
2023/03/03 04:00:18;;;;;;;70.13;43.35;;;;;;;;;;5035377;28;20025;-68
2023/03/03 04:02:43;;;;;;;81.70;43.72;;;;;;;;;;5031052;28;20028;-68
2023/03/03 04:05:08;;;;;;;78.20;45.33;;;;;;;;;;5023807;28;20472;-68
2023/03/03 04:07:34;;;;;;;84.50;42.70;;;;;;;;;;5036625;28;20130;-68
2023/03/03 04:09:59;;;;;;;69.18;44.47;;;;;;;;;;5034478;28;20029;-68
2023/03/03 04:12:25;;;;;;;78.03;45.45;;;;;;;;;;5039492;28;20107;-68
2023/03/03 04:14:50;;;;;;;76.65;43.90;;;;;;;;;;5037767;28;20052;-69
2023/03/03 04:17:16;;;;;;;75.72;42.05;;;;;;;;;;5021566;28;20060;-69
2023/03/03 04:19:41;;;;;;;70.60;42.30;;;;;;;;;;5028860;28;20122;-69
2023/03/03 04:22:07;;;;;;;69.57;41.35;;;;;;;;;;5039508;28;20140;-68
2023/03/03 04:24:32;;;;;;;78.30;42.28;;;;;;;;;;5033656;28;20036;-68
2023/03/03 04:26:57;;;;;;;68.07;38.15;;;;;;;;;;5033613;28;20037;-68
2023/03/03 04:29:22;;;;;;;64.00;38.92;;;;;;;;;;5033629;28;20073;-68
2023/03/03 04:31:48;;;;;;;68.10;39.97;;;;;;;;;;5026504;28;21261;-68
2023/03/03 04:34:13;;;;;;;77.47;39.22;;;;;;;;;;5031652;28;20029;-68
2023/03/03 04:36:38;;;;;;;67.03;38.70;;;;;;;;;;5035949;28;20041;-68
2023/03/03 04:39:03;;;;;;;65.05;39.53;;;;;;;;;;5004729;28;20044;-68
2023/03/03 04:41:29;;;;;;;72.03;39.03;;;;;;;;;;5015976;28;20409;-68
2023/03/03 04:43:54;;;;;;;66.95;38.58;;;;;;;;;;5021761;28;20031;-68
2023/03/03 04:46:19;;;;;;;75.15;40.38;;;;;;;;;;5019431;28;20497;-68
2023/03/03 04:48:45;;;;;;;68.40;39.17;;;;;;;;;;5034532;28;20032;-68
2023/03/03 04:51:10;;;;;;;68.85;41.63;;;;;;;;;;5033084;28;20643;-68
2023/03/03 04:53:37;;;;;;;77.28;39.45;;;;;;;;;;5032563;28;20052;-68
2023/03/03 04:56:03;;;;;;;61.65;36.88;;;;;;;;;;5029658;28;20025;-68
2023/03/03 04:58:29;;;;;;;70.68;40.67;;;;;;;;;;5033486;28;20134;-68
2023/03/03 05:00:55;;;;;;;75.57;41.40;;;;;;;;;;5032790;28;20806;-68
2023/03/03 05:03:20;;;;;;;79.78;44.10;;;;;;;;;;5032463;28;20075;-69
2023/03/03 05:05:46;;;;;;;78.38;40.08;;;;;;;;;;5029102;28;20033;-68
2023/03/03 05:08:12;;;;;;;80.47;41.42;;;;;;;;;;5032283;28;20767;-68
2023/03/03 05:10:37;;;;;;;71.63;38.90;;;;;;;;;;5035076;28;20131;-68
2023/03/03 05:13:03;;;;;;;78.28;40.47;;;;;;;;;;5026893;28;20514;-68
2023/03/03 05:15:29;;;;;;;66.28;37.00;;;;;;;;;;5018470;28;20198;-68
2023/03/03 05:17:55;;;;;;;74.35;38.38;;;;;;;;;;5022638;28;20033;-68
2023/03/03 05:20:20;;;;;;;66.72;36.28;;;;;;;;;;5032523;28;20025;-68
2023/03/03 05:22:46;;;;;;;68.88;35.05;;;;;;;;;;5020036;28;20026;-68
2023/03/03 05:25:12;;;;;;;65.93;36.30;;;;;;;;;;5016829;28;20025;-68
2023/03/03 05:27:37;;;;;;;73.13;38.55;;;;;;;;;;5028359;28;20025;-68
2023/03/03 05:30:03;;;;;;;66.93;34.22;;;;;;;;;;5037517;28;20025;-68
2023/03/03 05:32:28;;;;;;;61.70;35.25;;;;;;;;;;5020274;28;20374;-68
2023/03/03 05:34:53;;;;;;;77.00;38.28;;;;;;;;;;5021209;28;20029;-68
2023/03/03 05:37:19;;;;;;;71.68;37.05;;;;;;;;;;5028535;28;20654;-68
2023/03/03 05:39:44;;;;;;;71.47;36.92;;;;;;;;;;5034830;28;20036;-68
2023/03/03 05:42:11;;;;;;;76.38;37.30;;;;;;;;;;5026105;28;20490;-68
2023/03/03 05:44:36;;;;;;;62.00;37.55;;;;;;;;;;5017924;28;20045;-68
2023/03/03 05:47:01;;;;;;;81.07;39.20;;;;;;;;;;5028126;28;20851;-68
2023/03/03 05:49:26;;;;;;;69.10;36.20;;;;;;;;;;5028433;28;20032;-68
2023/03/03 05:51:52;;;;;;;72.32;36.80;;;;;;;;;;5022692;28;20018;-68
2023/03/03 05:54:17;;;;;;;80.63;39.55;;;;;;;;;;5021338;28;20036;-68
2023/03/03 05:56:42;;;;;;;79.38;38.35;;;;;;;;;;5021938;28;20033;-68
2023/03/03 05:59:07;;;;;;;73.65;36.28;;;;;;;;;;5022277;28;20029;-68
2023/03/03 06:01:33;;;;;;;86.13;39.35;;;;;;;;;;5027946;28;20021;-68
2023/03/03 06:03:58;;;;;;;79.80;39.63;;;;;;;;;;5027325;28;20032;-68
2023/03/03 06:06:23;;;;;;;68.30;36.97;;;;;;;;;;5021669;28;20017;-68
2023/03/03 06:08:49;;;;;;;86.35;37.92;;;;;;;;;;5027964;28;20033;-68
2023/03/03 06:11:15;;;;;;;75.15;40.05;;;;;;;;;;5025889;28;20045;-68
2023/03/03 06:13:41;;;;;;;80.45;38.50;;;;;;;;;;5026704;28;20100;-68
2023/03/03 06:16:07;;;;;;;88.75;40.58;;;;;;;;;;5019405;28;20196;-68
2023/03/03 06:18:32;;;;;;;71.88;36.95;;;;;;;;;;5028171;28;20487;-68
2023/03/03 06:20:57;;;;;;;71.90;37.42;;;;;;;;;;5026081;28;20070;-68
2023/03/03 06:23:22;;;;;;;78.63;37.05;;;;;;;;;;5018046;28;20025;-68
2023/03/03 06:25:48;;;;;;;65.60;36.70;;;;;;;;;;5027739;28;20113;-67
2023/03/03 06:28:13;;;;;;;72.50;36.42;;;;;;;;;;5012240;28;20021;-68
2023/03/03 06:30:39;;;;;;;73.75;37.78;;;;;;;;;;5022775;28;20460;-67
2023/03/03 06:33:04;;;;;;;77.97;37.75;;;;;;;;;;5020188;28;20033;-67
2023/03/03 06:35:29;;;;;;;73.05;37.47;;;;;;;;;;5025597;28;20048;-67
2023/03/03 06:37:55;;;;;;;79.45;38.65;;;;;;;;;;5027074;28;20028;-67
2023/03/03 06:40:20;;;;;;;73.65;39.38;;;;;;;;;;5019337;28;20022;-68
2023/03/03 06:42:45;;;;;;;85.93;38.80;;;;;;;;;;5027286;28;20044;-67
2023/03/03 06:45:11;;;;;;;83.53;40.53;;;;;;;;;;5030741;28;20009;-66
2023/03/03 06:47:36;;;;;;;90.80;43.35;;;;;;;;;;5024755;28;20036;-68
2023/03/03 06:50:01;;;;;;;77.38;40.45;;;;;;;;;;5024750;28;20056;-68
2023/03/03 06:52:27;;;;;;;90.50;40.78;;;;;;;;;;5020447;28;20025;-68
2023/03/03 06:54:56;;;;;;;90.97;40.35;;;;;;;;;;5012332;28;20380;-68
2023/03/03 06:57:24;;;;;;;79.85;40.63;;;;;;;;;;5017878;28;20036;-67
2023/03/03 06:59:51;;;;;;;91.90;43.33;;;;;;;;;;5027668;28;20494;-68
2023/03/03 07:02:17;;;;;;;94.47;43.65;;;;;;;;;;5025281;28;20036;-69
2023/03/03 07:04:42;;;;;;;72.68;39.63;;;;;;;;;;5019129;28;20030;-68
2023/03/03 07:07:26;;;;;;;95.63;43.63;;;;;;;;;;5017100;28;20031;-68
2023/03/03 07:09:53;;;;;;;99.85;41.97;;;;;;;;;;5023849;28;20043;-68
2023/03/03 07:12:21;;;;;;;83.13;40.15;;;;;;;;;;5016200;28;20029;-68
2023/03/03 07:14:49;;;;;;;77.20;39.92;;;;;;;;;;5022082;28;20318;-68
2023/03/03 07:17:16;;;;;;;84.68;40.45;;;;;;;;;;5009343;28;20148;-68
2023/03/03 07:19:42;;;;;;;91.82;40.70;;;;;;;;;;5015573;28;20032;-68
2023/03/03 07:22:18;;;;;;;87.10;40.65;;;;;;;;;;5007399;28;20029;-68
2023/03/03 07:24:48;;;;;;;88.60;39.85;;;;;;;;;;5000592;28;20028;-68
2023/03/03 07:27:21;;;;;;;95.72;43.53;;;;;;;;;;5004412;28;20396;-68
2023/03/03 07:29:47;;;;;;;91.03;41.28;;;;;;;;;;4998910;28;20029;-68
2023/03/03 07:32:24;;;;;;;84.25;42.05;;;;;;;;;;5006000;28;20974;-68
2023/03/03 07:34:51;;;;;;;87.00;40.72;;;;;;;;;;5002826;28;20538;-68
2023/03/03 07:37:20;;;;;;;86.97;41.10;;;;;;;;;;5016914;28;20066;-69
2023/03/03 07:39:46;;;;;;;80.07;39.08;;;;;;;;;;5020169;28;20031;-68
2023/03/03 07:42:11;;;;;;;90.30;40.97;;;;;;;;;;5010524;28;20022;-69
2023/03/03 07:44:36;;;;;;;85.65;42.20;;;;;;;;;;5011043;28;20852;-68
2023/03/03 07:47:22;;;;;;;81.97;41.03;;;;;;;;;;5027603;28;20028;-67
2023/03/03 07:49:48;;;;;;;91.03;39.95;;;;;;;;;;5017186;28;20496;-69
2023/03/03 07:52:26;;;;;;;79.65;40.22;;;;;;;;;;5024962;28;20087;-69
2023/03/03 07:54:51;;;;;;;84.28;40.63;;;;;;;;;;5004205;28;20025;-67
2023/03/03 07:57:21;;;;;;;97.80;41.67;;;;;;;;;;4997659;28;20147;-69
2023/03/03 07:59:47;;;;;;;88.55;39.83;;;;;;;;;;4994585;28;20017;-68
2023/03/03 08:02:36;;;;;;;92.88;42.80;;;;;;;;;;5005555;28;20238;-67
2023/03/03 08:05:14;;;;;;;93.78;42.15;;;;;;;;;;5003091;28;21310;-68
2023/03/03 08:07:40;;;;;;;80.47;38.38;;;;;;;;;;5015958;28;20091;-68
2023/03/03 08:10:25;;;;;;;78.65;40.45;;;;;;;;;;5006631;28;21035;-68
2023/03/03 08:12:50;;;;;;;80.82;39.28;;;;;;;;;;5006262;28;20029;-68
2023/03/03 08:15:23;;;;;;;89.20;42.90;;;;;;;;;;5020216;28;20043;-68
2023/03/03 08:17:49;;;;;;;93.40;40.30;;;;;;;;;;5012900;28;20030;-68
2023/03/03 08:20:32;;;;;;;80.53;41.03;;;;;;;;;;5027759;28;20464;-68
2023/03/03 08:22:58;;;;;;;82.60;39.87;;;;;;;;;;5014504;28;20032;-68
2023/03/03 08:25:23;;;;;;;75.95;38.60;;;;;;;;;;5010911;28;20103;-68
2023/03/03 08:27:48;;;;;;;74.85;36.65;;;;;;;;;;5021624;28;20103;-68
2023/03/03 08:30:14;;;;;;;76.70;37.60;;;;;;;;;;5027825;28;20797;-68
2023/03/03 08:32:39;;;;;;;80.57;37.08;;;;;;;;;;5021396;28;20092;-68
2023/03/03 08:35:04;;;;;;;75.05;37.17;;;;;;;;;;5023648;28;20162;-68
2023/03/03 08:37:29;;;;;;;68.97;36.08;;;;;;;;;;5033102;28;20954;-68
2023/03/03 08:39:55;;;;;;;65.03;35.17;;;;;;;;;;5004756;28;20138;-68
2023/03/03 08:42:20;;;;;;;68.78;34.58;;;;;;;;;;5020963;28;20037;-68
2023/03/03 08:44:45;;;;;;;68.03;35.03;;;;;;;;;;5027163;28;20024;-68
2023/03/03 08:47:10;;;;;;;67.68;32.42;;;;;;;;;;5030026;28;20040;-68
2023/03/03 08:49:36;;;;;;;56.22;33.08;;;;;;;;;;5026465;28;20040;-68
2023/03/03 08:52:01;;;;;;;68.85;34.38;;;;;;;;;;5023959;28;20246;-68
2023/03/03 08:54:27;;;;;;;71.70;33.78;;;;;;;;;;5009215;28;20025;-68
2023/03/03 08:56:52;;;;;;;63.38;34.33;;;;;;;;;;5009502;28;20076;-68
2023/03/03 08:59:19;;;;;;;59.53;32.97;;;;;;;;;;5022943;28;20088;-68
2023/03/03 09:01:44;;;;;;;76.28;34.08;;;;;;;;;;5020335;28;20494;-69
2023/03/03 09:04:09;;;;;;;61.33;34.00;;;;;;;;;;5014621;28;20029;-69
2023/03/03 09:06:35;;;;;;;64.93;33.47;;;;;;;;;;5008205;28;20096;-69
2023/03/03 09:09:00;;;;;;;70.07;34.03;;;;;;;;;;5020501;28;20784;-68
2023/03/03 09:11:27;;;;;;;64.43;34.15;;;;;;;;;;5018749;28;20036;-69
2023/03/03 09:14:05;;;;;;;68.90;34.85;;;;;;;;;;5013678;28;20037;-68
2023/03/03 09:16:33;;;;;;;67.47;35.72;;;;;;;;;;5008795;28;20037;-68
2023/03/03 09:19:05;;;;;;;65.30;33.53;;;;;;;;;;5010365;28;20026;-68
2023/03/03 09:21:34;;;;;;;62.50;33.17;;;;;;;;;;5010251;28;20030;-68
2023/03/03 09:23:59;;;;;;;66.68;33.47;;;;;;;;;;5013544;28;20151;-68
2023/03/03 09:26:27;;;;;;;61.85;34.47;;;;;;;;;;5012315;28;20841;-68
2023/03/03 09:29:12;;;;;;;68.50;32.72;;;;;;;;;;5004206;28;20087;-68
2023/03/03 09:31:41;;;;;;;68.55;33.95;;;;;;;;;;5007099;28;20094;-68
2023/03/03 09:34:32;;;;;;;64.38;31.60;;;;;;;;;;5021345;28;20024;-68
2023/03/03 09:36:58;;;;;;;48.65;29.70;;;;;;;;;;5018457;28;20055;-68
2023/03/03 09:39:25;;;;;;;45.67;29.42;;;;;;;;;;5029439;28;20021;-68
2023/03/03 09:41:50;;;;;;;52.95;30.98;;;;;;;;;;5010341;28;20082;-68
2023/03/03 09:44:21;;;;;;;53.95;29.52;;;;;;;;;;5016123;28;20031;-68
2023/03/03 09:47:05;;;;;;;48.58;28.45;;;;;;;;;;5019181;28;20064;-68
2023/03/03 09:49:32;;;;;;;47.08;28.75;;;;;;;;;;5001835;28;20115;-68
2023/03/03 09:52:04;;;;;;;48.53;28.50;;;;;;;;;;5028511;28;20432;-68
2023/03/03 09:54:35;;;;;;;43.50;27.75;;;;;;;;;;5024077;28;20078;-69
2023/03/03 09:57:06;;;;;;;45.38;26.48;;;;;;;;;;5036612;28;20044;-68
2023/03/03 09:59:37;;;;;;;46.53;28.17;;;;;;;;;;5026106;28;20470;-69
2023/03/03 10:02:03;;;;;;;45.38;29.60;;;;;;;;;;5027393;28;20025;-70
2023/03/03 10:04:47;;;;;;;40.35;26.67;;;;;;;;;;5016610;28;20038;-68
2023/03/03 10:07:40;;;;;;;41.80;26.45;;;;;;;;;;5022422;28;20079;-68
2023/03/03 10:10:24;;;;;;;38.67;24.67;;;;;;;;;;4998730;28;20040;-69
2023/03/03 10:13:12;;;;;;;37.38;23.25;;;;;;;;;;5021157;28;20018;-68
2023/03/03 10:15:56;;;;;;;39.10;24.00;;;;;;;;;;5042516;28;20029;-68
2023/03/03 10:18:40;;;;;;;36.63;23.20;;;;;;;;;;5032648;28;20029;-69
2023/03/03 10:21:28;;;;;;;42.33;25.00;;;;;;;;;;5026271;28;20033;-69
2023/03/03 10:24:04;;;;;;;39.45;24.10;;;;;;;;;;5023820;28;20030;-68
2023/03/03 10:26:48;;;;;;;42.95;24.90;;;;;;;;;;5032751;28;20136;-68
2023/03/03 10:29:28;;;;;;;33.67;23.67;;;;;;;;;;5020316;28;20029;-69
2023/03/03 10:31:56;;;;;;;34.97;23.65;;;;;;;;;;5029748;28;20020;-69
2023/03/03 10:34:40;;;;;;;35.70;23.30;;;;;;;;;;5036826;28;20028;-69
2023/03/03 10:37:29;;;;;;;41.17;25.27;;;;;;;;;;5035130;28;20072;-68
2023/03/03 10:40:09;;;;;;;35.75;22.77;;;;;;;;;;5035987;28;20282;-68
2023/03/03 10:42:58;;;;;;;40.78;26.08;;;;;;;;;;5029686;28;20907;-67
2023/03/03 10:45:42;;;;;;;44.45;24.92;;;;;;;;;;4993651;28;20620;-68
2023/03/03 10:48:10;;;;;;;39.63;24.85;;;;;;;;;;5037048;28;20074;-67
2023/03/03 10:50:44;;;;;;;36.88;22.83;;;;;;;;;;5015719;28;20045;-68
2023/03/03 10:53:28;;;;;;;37.22;22.70;;;;;;;;;;5035004;28;20032;-68
2023/03/03 10:55:58;;;;;;;39.05;22.77;;;;;;;;;;5022227;28;20300;-68
2023/03/03 10:58:26;;;;;;;32.38;21.00;;;;;;;;;;5031697;28;20032;-69
2023/03/03 11:00:57;;;;;;;33.75;20.63;;;;;;;;;;5037278;28;20041;-68
2023/03/03 11:03:28;;;;;;;30.33;20.08;;;;;;;;;;5027101;28;20029;-68
2023/03/03 11:05:57;;;;;;;31.42;20.20;;;;;;;;;;5035569;28;20037;-68
2023/03/03 11:08:35;;;;;;;33.38;20.92;;;;;;;;;;5036112;28;20387;-68
2023/03/03 11:11:18;;;;;;;31.80;19.67;;;;;;;;;;5038477;28;20100;-68
2023/03/03 11:13:57;;;;;;;29.48;20.15;;;;;;;;;;5039514;28;20041;-68
2023/03/03 11:16:43;;;;;;;32.33;19.42;;;;;;;;;;5037250;28;20179;-68
2023/03/03 11:19:08;;;;;;;33.55;21.33;;;;;;;;;;5030629;28;20827;-69
2023/03/03 11:21:33;;;;;;;32.75;20.65;;;;;;;;;;5022458;28;20033;-69
2023/03/03 11:24:01;;;;;;;35.47;22.98;;;;;;;;;;5010302;28;20028;-69
2023/03/03 11:26:45;;;;;;;27.63;19.40;;;;;;;;;;5015082;28;20087;-69
2023/03/03 11:29:13;;;;;;;33.50;21.27;;;;;;;;;;5015525;28;20028;-68
2023/03/03 11:31:44;;;;;;;26.33;17.35;;;;;;;;;;5012275;28;20280;-68
2023/03/03 11:34:30;;;;;;;34.10;19.50;;;;;;;;;;5004285;28;20032;-68
2023/03/03 11:37:15;;;;;;;26.80;18.02;;;;;;;;;;5005922;28;20071;-68
2023/03/03 11:39:43;;;;;;;31.75;17.98;;;;;;;;;;4997172;28;20030;-68
2023/03/03 11:42:19;;;;;;;31.92;18.95;;;;;;;;;;5005573;28;20026;-69
2023/03/03 11:44:50;;;;;;;32.72;19.92;;;;;;;;;;5004642;28;20330;-68
2023/03/03 11:47:22;;;;;;;31.55;18.60;;;;;;;;;;5005316;28;20036;-69
2023/03/03 11:50:07;;;;;;;27.60;17.15;;;;;;;;;;5008661;28;20900;-69
2023/03/03 11:52:55;;;;;;;31.42;19.17;;;;;;;;;;5009807;28;20099;-69
2023/03/03 11:55:30;;;;;;;30.95;19.17;;;;;;;;;;5026310;28;20882;-69
2023/03/03 11:58:11;;;;;;;31.40;19.70;;;;;;;;;;5029347;28;20055;-68
2023/03/03 12:00:39;;;;;;;30.85;17.48;;;;;;;;;;5031832;28;20167;-68
2023/03/03 12:03:05;;;;;;;32.33;18.23;;;;;;;;;;5035681;28;20032;-68
2023/03/03 12:05:34;;;;;;;28.88;18.58;;;;;;;;;;5026779;28;20395;-68
2023/03/03 12:08:06;;;;;;;36.40;19.75;;;;;;;;;;5033352;28;20029;-68
2023/03/03 12:10:35;;;;;;;26.65;17.20;;;;;;;;;;5027553;28;20116;-67
2023/03/03 12:13:06;;;;;;;31.98;18.23;;;;;;;;;;5029234;28;20024;-68
2023/03/03 12:15:40;;;;;;;34.92;19.77;;;;;;;;;;5036851;28;20431;-69
2023/03/03 12:18:08;;;;;;;30.85;16.50;;;;;;;;;;5040882;28;20036;-69
2023/03/03 12:20:33;;;;;;;28.88;19.08;;;;;;;;;;5044923;28;20029;-69
2023/03/03 12:23:02;;;;;;;27.73;17.45;;;;;;;;;;5039389;28;20051;-69
2023/03/03 12:25:34;;;;;;;28.10;18.33;;;;;;;;;;5037242;28;20021;-69
2023/03/03 12:28:04;;;;;;;27.38;17.20;;;;;;;;;;5018646;28;20025;-69
2023/03/03 12:30:35;;;;;;;27.58;17.65;;;;;;;;;;5025108;28;20017;-70
2023/03/03 12:33:20;;;;;;;33.38;17.88;;;;;;;;;;5041037;28;20032;-69
2023/03/03 12:35:48;;;;;;;33.75;17.25;;;;;;;;;;5021573;28;20031;-69
2023/03/03 12:38:22;;;;;;;27.02;16.13;;;;;;;;;;5021861;28;20025;-69
2023/03/03 12:40:55;;;;;;;24.30;16.08;;;;;;;;;;5018900;28;20400;-69
2023/03/03 12:43:29;;;;;;;29.17;17.95;;;;;;;;;;5023301;28;20356;-69
2023/03/03 12:45:59;;;;;;;29.13;18.50;;;;;;;;;;5025616;28;20030;-69
2023/03/03 12:48:37;;;;;;;30.05;18.38;;;;;;;;;;5015838;28;20021;-69
2023/03/03 12:51:03;;;;;;;37.67;19.05;;;;;;;;;;5006755;28;20139;-69
2023/03/03 12:53:28;;;;;;;30.00;19.00;;;;;;;;;;5007650;28;20029;-72
2023/03/03 12:56:03;;;;;;;32.88;19.17;;;;;;;;;;5024323;28;20032;-68
2023/03/03 12:58:40;;;;;;;30.38;19.35;;;;;;;;;;5007898;28;20029;-69
2023/03/03 13:01:12;;;;;;;28.48;18.50;;;;;;;;;;5009575;28;20041;-70
2023/03/03 13:03:58;;;;;;;25.48;16.75;;;;;;;;;;5005637;28;20021;-69
2023/03/03 13:06:28;;;;;;;27.50;16.42;;;;;;;;;;5006491;28;20148;-69
2023/03/03 13:08:57;;;;;;;26.98;17.23;;;;;;;;;;5005557;28;20013;-69
2023/03/03 13:11:27;;;;;;;28.20;18.15;;;;;;;;;;5005363;28;20086;-69
2023/03/03 13:14:02;;;;;;;24.38;15.27;;;;;;;;;;5007681;28;20025;-68
2023/03/03 13:16:29;;;;;;;22.30;15.63;;;;;;;;;;5010280;28;20036;-69
2023/03/03 13:18:58;;;;;;;26.33;15.30;;;;;;;;;;5006973;28;20021;-69
2023/03/03 13:21:44;;;;;;;27.70;16.05;;;;;;;;;;5006175;28;20941;-71
2023/03/03 13:24:20;;;;;;;24.42;14.45;;;;;;;;;;5009186;28;20020;-69
2023/03/03 13:26:45;;;;;;;23.27;15.43;;;;;;;;;;5004399;28;20036;-67
2023/03/03 13:29:10;;;;;;;26.67;16.45;;;;;;;;;;5016028;28;20033;-68
2023/03/03 13:31:39;;;;;;;20.63;15.37;;;;;;;;;;5006831;28;20882;-67
2023/03/03 13:34:07;;;;;;;22.45;16.23;;;;;;;;;;5024476;28;20272;-68
2023/03/03 13:36:41;;;;;;;26.13;15.68;;;;;;;;;;5017073;28;20029;-71
2023/03/03 13:39:27;;;;;;;26.17;16.20;;;;;;;;;;5022831;28;20033;-70
2023/03/03 13:42:04;;;;;;;24.33;14.75;;;;;;;;;;5022717;28;20037;-68
2023/03/03 13:44:33;;;;;;;24.63;15.77;;;;;;;;;;5042986;28;20033;-68
2023/03/03 13:47:17;;;;;;;22.48;15.68;;;;;;;;;;5046919;28;20464;-69
2023/03/03 13:49:42;;;;;;;29.15;16.67;;;;;;;;;;5053539;28;20052;-68
2023/03/03 13:52:09;;;;;;;28.58;17.33;;;;;;;;;;5051735;28;20356;-68
2023/03/03 13:54:37;;;;;;;28.52;16.48;;;;;;;;;;5049336;28;20075;-68
2023/03/03 13:57:21;;;;;;;28.50;16.75;;;;;;;;;;5053529;28;20072;-68
2023/03/03 13:59:46;;;;;;;15.53;11.23;;;;;;;;;;5050300;28;20036;-69
2023/03/03 14:02:30;;;;;;;30.63;17.55;;;;;;;;;;5050723;28;20464;-68
2023/03/03 14:05:10;;;;;;;26.52;15.60;;;;;;;;;;5048262;28;20045;-68
2023/03/03 14:07:58;;;;;;;23.67;15.85;;;;;;;;;;5047323;28;20472;-68
2023/03/03 14:10:30;;;;;;;24.92;15.77;;;;;;;;;;5049790;28;20067;-68
2023/03/03 14:13:02;;;;;;;22.10;15.20;;;;;;;;;;5047766;28;20079;-68
2023/03/03 14:15:30;;;;;;;27.15;14.43;;;;;;;;;;5043386;28;20051;-68
2023/03/03 14:18:14;;;;;;;22.25;13.85;;;;;;;;;;5053530;28;20033;-68
2023/03/03 14:20:45;;;;;;;19.67;14.50;;;;;;;;;;5040484;28;20028;-68
2023/03/03 14:23:19;;;;;;;18.67;12.32;;;;;;;;;;5050087;28;20021;-68
2023/03/03 14:25:57;;;;;;;22.60;15.90;;;;;;;;;;5039125;28;20025;-66
2023/03/03 14:28:23;;;;;;;19.98;12.68;;;;;;;;;;5047015;28;20390;-68
2023/03/03 14:30:48;;;;;;;20.63;13.88;;;;;;;;;;5035683;28;20030;-68